Time;durP1;ratioP1;P1;durP2;ratioP2;P2;SDS_P1;SDS_P2;PMS_P1;PMS_P2;Temp;Humidity;BMP_temperature;BMP_pressure;BME280_temperature;BME280_humidity;BME280_pressure;Samples;Min_cycle;Max_cycle;Signal;HPM_P1;HPM_P2
2021/12/06 00:02:16;;;;;;;27.93;17.30;;;;;;;-2.37;100.00;97336.81;4974509;28;20484;-74
2021/12/06 00:04:44;;;;;;;23.00;16.57;;;;;;;-2.54;100.00;97345.69;4943171;28;20456;-75
2021/12/06 00:07:16;;;;;;;19.43;15.00;;;;;;;-2.64;100.00;97342.84;4959483;28;20213;-74
2021/12/06 00:09:44;;;;;;;20.83;14.53;;;;;;;-2.44;100.00;97350.28;4956769;28;21692;-76
2021/12/06 00:12:14;;;;;;;19.97;13.23;;;;;;;-2.53;100.00;97342.16;4964095;28;20469;-73
2021/12/06 00:14:45;;;;;;;19.13;17.13;;;;;;;-2.54;100.00;97350.03;4979682;28;20444;-77
2021/12/06 00:17:16;;;;;;;15.97;13.67;;;;;;;-2.56;100.00;97341.50;4973115;28;20508;-74
2021/12/06 00:19:45;;;;;;;19.63;14.57;;;;;;;-2.50;100.00;97348.91;4937239;28;22304;-74
2021/12/06 00:22:15;;;;;;;15.40;12.43;;;;;;;-2.50;100.00;97344.56;4973062;28;20484;-74
2021/12/06 00:24:44;;;;;;;15.60;12.77;;;;;;;-2.47;100.00;97349.53;4944859;28;20682;-74
2021/12/06 00:27:12;;;;;;;14.30;12.63;;;;;;;-2.50;100.00;97344.56;4974620;28;20937;-76
2021/12/06 00:29:40;;;;;;;12.53;11.23;;;;;;;-2.43;100.00;97346.75;4945609;28;21188;-75
2021/12/06 00:32:10;;;;;;;14.47;10.93;;;;;;;-2.38;100.00;97348.13;4974348;28;20463;-73
2021/12/06 00:34:39;;;;;;;13.33;11.93;;;;;;;-2.28;100.00;97339.75;4951852;28;20588;-77
2021/12/06 00:37:18;;;;;;;14.63;12.67;;;;;;;-2.24;100.00;97343.81;4962169;28;20228;-75
2021/12/06 00:39:47;;;;;;;16.93;13.97;;;;;;;-2.25;100.00;97350.78;4960866;28;20420;-77
2021/12/06 00:42:16;;;;;;;14.73;13.20;;;;;;;-2.30;100.00;97350.22;4962645;28;20488;-74
2021/12/06 00:44:44;;;;;;;17.60;13.93;;;;;;;-2.25;100.00;97355.13;4971175;28;20591;-75
2021/12/06 00:47:13;;;;;;;19.30;15.37;;;;;;;-2.26;100.00;97356.03;4974123;28;20229;-75
2021/12/06 00:49:44;;;;;;;18.20;14.97;;;;;;;-2.18;100.00;97358.97;4963452;28;20602;-76
2021/12/06 00:52:13;;;;;;;16.07;13.57;;;;;;;-2.22;100.00;97357.50;4947703;28;20457;-75
2021/12/06 00:54:42;;;;;;;17.17;13.87;;;;;;;-2.24;100.00;97349.00;4958648;28;20547;-76
2021/12/06 00:57:12;;;;;;;15.10;13.50;;;;;;;-2.22;100.00;97354.91;4961397;28;20622;-75
2021/12/06 00:59:41;;;;;;;16.43;14.83;;;;;;;-2.26;100.00;97363.84;4959717;28;20544;-76
2021/12/06 01:02:10;;;;;;;16.57;14.30;;;;;;;-2.26;100.00;97361.25;4974032;28;20881;-76
2021/12/06 01:04:42;;;;;;;15.77;13.63;;;;;;;-2.31;100.00;97364.13;4970557;28;20610;-76
2021/12/06 01:07:11;;;;;;;13.30;12.00;;;;;;;-2.29;100.00;97364.03;4928672;28;20229;-77
2021/12/06 01:09:39;;;;;;;16.40;12.43;;;;;;;-2.31;100.00;97364.13;4971979;28;20545;-77
2021/12/06 01:12:09;;;;;;;15.50;13.53;;;;;;;-2.30;100.00;97364.97;4957561;28;20221;-75
2021/12/06 01:14:37;;;;;;;11.90;10.40;;;;;;;-2.30;100.00;97373.56;4976512;28;20468;-74
2021/12/06 01:17:07;;;;;;;12.37;11.17;;;;;;;-2.29;100.00;97371.81;4961423;28;20814;-74
2021/12/06 01:19:36;;;;;;;13.50;12.13;;;;;;;-2.27;100.00;97370.81;4974152;28;20477;-74
2021/12/06 01:22:18;;;;;;;13.37;10.80;;;;;;;-2.11;100.00;97381.00;4950951;28;20756;-75
2021/12/06 01:24:53;;;;;;;10.93;9.90;;;;;;;-2.21;100.00;97385.97;4971582;28;20803;-76
2021/12/06 01:27:44;;;;;;;11.67;10.03;;;;;;;-2.10;100.00;97379.25;4958904;28;20855;-75
2021/12/06 01:30:27;;;;;;;10.47;9.47;;;;;;;-2.12;100.00;97387.13;4970081;28;20703;-77
2021/12/06 01:41:17;;;;;;;10.80;9.80;;;;;;;-2.05;100.00;97390.16;4959130;28;20514;-77
2021/12/06 01:44:11;;;;;;;12.23;10.23;;;;;;;-2.04;100.00;97390.09;4967853;28;20498;-77
2021/12/06 01:46:42;;;;;;;11.37;10.27;;;;;;;-2.08;100.00;97396.41;4965187;28;20812;-75
2021/12/06 01:49:10;;;;;;;11.67;10.47;;;;;;;-2.05;100.00;97395.34;4971292;28;20888;-76
2021/12/06 01:51:38;;;;;;;11.67;10.67;;;;;;;-1.98;100.00;97395.81;4975622;28;20206;-77
2021/12/06 01:54:09;;;;;;;12.17;9.87;;;;;;;-2.00;100.00;97400.28;4935273;28;20224;-75
2021/12/06 01:56:38;;;;;;;11.20;10.20;;;;;;;-2.00;100.00;97397.66;4976336;28;20460;-77
2021/12/06 01:59:06;;;;;;;10.87;9.87;;;;;;;-1.97;100.00;97389.69;4961020;28;20226;-75
2021/12/06 02:01:35;;;;;;;11.17;10.07;;;;;;;-1.95;100.00;97400.78;4973733;28;20456;-78
2021/12/06 02:04:05;;;;;;;11.03;8.97;;;;;;;-2.01;100.00;97401.19;4965583;28;20229;-75
2021/12/06 02:06:33;;;;;;;10.67;9.67;;;;;;;-1.91;100.00;97400.47;4977175;28;20861;-77
2021/12/06 02:09:01;;;;;;;11.43;10.43;;;;;;;-1.95;100.00;97395.59;4955706;28;20233;-75
2021/12/06 02:11:32;;;;;;;11.37;10.17;;;;;;;-1.90;100.00;97391.75;4962633;28;20200;-76
2021/12/06 02:14:06;;;;;;;10.57;9.47;;;;;;;-1.96;100.00;97394.75;4962057;28;20515;-75
2021/12/06 02:16:41;;;;;;;11.40;10.20;;;;;;;-2.02;100.00;97399.53;4962534;28;20461;-77
2021/12/06 02:19:10;;;;;;;12.73;10.80;;;;;;;-1.96;100.00;97391.34;4973409;28;20328;-76
2021/12/06 02:21:42;;;;;;;11.67;10.57;;;;;;;-1.97;100.00;97392.28;4978760;28;20733;-77
2021/12/06 02:24:10;;;;;;;11.93;10.73;;;;;;;-2.00;100.00;97392.47;4929723;28;22598;-74
2021/12/06 02:26:40;;;;;;;10.83;9.73;;;;;;;-1.99;100.00;97383.75;4985144;28;20267;-78
2021/12/06 02:29:09;;;;;;;10.30;9.40;;;;;;;-2.01;100.00;97388.22;4947096;28;20434;-74
2021/12/06 02:31:37;;;;;;;10.07;9.17;;;;;;;-1.93;100.00;97393.72;4983367;28;20212;-77
2021/12/06 02:34:06;;;;;;;9.87;8.97;;;;;;;-1.91;100.00;97384.91;4965192;28;20250;-75
2021/12/06 02:36:34;;;;;;;9.93;9.07;;;;;;;-1.92;100.00;97396.22;4974645;28;20228;-78
2021/12/06 02:39:08;;;;;;;10.37;9.37;;;;;;;-1.95;100.00;97393.00;4973769;28;20225;-75
2021/12/06 02:41:37;;;;;;;10.60;9.50;;;;;;;-1.97;100.00;97400.06;4956075;28;20225;-77
2021/12/06 02:44:06;;;;;;;10.63;9.57;;;;;;;-1.99;100.00;97402.75;4975661;28;20244;-74
2021/12/06 02:46:34;;;;;;;11.37;10.27;;;;;;;-1.94;100.00;97397.25;4954301;28;21295;-77
2021/12/06 02:49:03;;;;;;;10.10;9.20;;;;;;;-1.96;100.00;97396.53;4974512;28;20489;-75
2021/12/06 02:51:31;;;;;;;11.17;10.00;;;;;;;-1.94;100.00;97399.88;4975772;28;20206;-77
2021/12/06 02:53:59;;;;;;;9.83;8.83;;;;;;;-1.95;100.00;97396.41;4960289;28;20221;-75
2021/12/06 02:56:34;;;;;;;10.47;9.43;;;;;;;-1.95;100.00;97401.63;4947552;28;20693;-77
2021/12/06 02:59:06;;;;;;;11.50;10.00;;;;;;;-1.69;100.00;97411.25;4960127;28;20491;-75
2021/12/06 03:01:39;;;;;;;11.60;10.40;;;;;;;-1.68;100.00;97412.91;4966359;28;20459;-77
2021/12/06 03:04:08;;;;;;;12.27;10.17;;;;;;;-1.81;100.00;97413.69;4965668;28;20225;-75
2021/12/06 03:06:36;;;;;;;11.00;9.90;;;;;;;-1.71;100.00;97418.28;4973089;28;20472;-77
2021/12/06 03:09:08;;;;;;;10.40;9.30;;;;;;;-1.52;100.00;97426.53;4975240;28;20233;-75
2021/12/06 03:11:39;;;;;;;10.63;9.63;;;;;;;-1.33;100.00;97426.16;4935622;28;20457;-77
2021/12/06 03:14:09;;;;;;;10.07;9.17;;;;;;;-1.41;100.00;97420.63;4974957;28;20212;-76
2021/12/06 03:16:38;;;;;;;10.97;8.70;;;;;;;-1.59;100.00;97420.09;4960492;28;20955;-78
2021/12/06 03:19:06;;;;;;;11.43;9.60;;;;;;;-1.69;100.00;97421.66;4975724;28;20701;-75
2021/12/06 03:21:35;;;;;;;10.73;9.40;;;;;;;-1.76;100.00;97429.81;4974656;28;20803;-77
2021/12/06 03:24:04;;;;;;;13.07;10.07;;;;;;;-1.75;100.00;97430.66;4957722;28;20729;-75
2021/12/06 03:26:33;;;;;;;9.93;9.03;;;;;;;-1.55;100.00;97431.09;4969439;28;20814;-78
2021/12/06 03:29:03;;;;;;;10.70;9.60;;;;;;;-1.59;100.00;97435.69;4929963;28;20698;-75
2021/12/06 03:31:32;;;;;;;10.70;9.60;;;;;;;-1.62;100.00;97444.50;4974876;28;20450;-72
2021/12/06 03:34:00;;;;;;;10.17;9.20;;;;;;;-1.43;100.00;97443.31;4944585;28;20480;-73
2021/12/06 03:36:31;;;;;;;11.00;9.77;;;;;;;-1.50;100.00;97447.25;4976990;28;20593;-74
2021/12/06 03:39:04;;;;;;;11.07;9.97;;;;;;;-1.34;100.00;97460.03;4972116;28;20971;-73
2021/12/06 03:41:34;;;;;;;10.13;9.13;;;;;;;-1.30;100.00;97464.13;4954691;28;20483;-75
2021/12/06 03:44:05;;;;;;;10.67;9.67;;;;;;;-1.22;100.00;97464.44;4936019;28;20480;-76
2021/12/06 03:46:34;;;;;;;10.17;9.13;;;;;;;-1.10;100.00;97462.78;4970937;28;20679;-73
2021/12/06 03:49:08;;;;;;;10.93;9.87;;;;;;;-1.04;100.00;97464.09;4959277;28;20495;-74
2021/12/06 03:51:37;;;;;;;11.03;9.97;;;;;;;-1.12;100.00;97469.84;4972656;28;20214;-79
2021/12/06 03:54:06;;;;;;;12.07;9.77;;;;;;;-1.19;100.00;97469.41;4973730;28;20925;-76
2021/12/06 03:56:34;;;;;;;11.47;10.07;;;;;;;-1.41;100.00;97470.03;4955462;28;20214;-78
2021/12/06 03:59:02;;;;;;;10.70;9.60;;;;;;;-1.41;100.00;97469.19;4947096;28;20852;-78
2021/12/06 04:01:32;;;;;;;14.10;11.70;;;;;;;-1.22;100.00;97479.19;4957077;28;20870;-78
2021/12/06 04:04:02;;;;;;;11.10;10.03;;;;;;;-1.34;100.00;97479.06;4958008;28;20752;-78
2021/12/06 04:06:30;;;;;;;13.43;10.53;;;;;;;-1.36;100.00;97480.09;4972451;28;20440;-78
2021/12/06 04:08:58;;;;;;;11.57;10.47;;;;;;;-1.43;100.00;97487.50;4957753;28;20888;-78
2021/12/06 04:11:26;;;;;;;10.60;9.50;;;;;;;-1.50;100.00;97484.44;4972257;28;20206;-77
2021/12/06 04:13:54;;;;;;;12.80;10.47;;;;;;;-1.50;100.00;97488.84;4960841;28;20979;-78
2021/12/06 04:16:22;;;;;;;11.40;10.30;;;;;;;-1.54;100.00;97487.34;4942460;28;20232;-78
2021/12/06 04:18:52;;;;;;;14.00;10.93;;;;;;;-1.53;100.00;97495.06;4961784;28;20519;-77
2021/12/06 04:21:21;;;;;;;12.20;10.07;;;;;;;-1.52;100.00;97495.88;4957292;28;20449;-76
2021/12/06 04:23:49;;;;;;;10.67;9.53;;;;;;;-1.49;100.00;97506.91;4974986;28;20852;-77
2021/12/06 04:26:18;;;;;;;13.43;11.57;;;;;;;-1.52;100.00;97499.31;4966331;28;20221;-76
2021/12/06 04:28:49;;;;;;;15.47;12.30;;;;;;;-1.50;100.00;97510.44;4968581;28;20236;-79
2021/12/06 04:31:17;;;;;;;13.27;10.90;;;;;;;-1.53;100.00;97510.66;4941821;28;20224;-77
2021/12/06 04:33:45;;;;;;;12.30;10.60;;;;;;;-1.52;100.00;97514.91;4972115;28;20650;-79
2021/12/06 04:36:35;;;;;;;11.03;9.90;;;;;;;-1.44;100.00;97523.97;4967976;28;20315;-80
2021/12/06 04:39:05;;;;;;;12.40;10.57;;;;;;;-1.41;100.00;97524.59;4976752;28;20252;-78
2021/12/06 04:41:33;;;;;;;12.17;10.87;;;;;;;-1.43;100.00;97521.28;4960839;28;20252;-79
2021/12/06 04:44:01;;;;;;;12.63;10.97;;;;;;;-1.38;100.00;97533.97;4976782;28;20240;-77
2021/12/06 04:46:30;;;;;;;14.23;12.87;;;;;;;-1.39;100.00;97533.13;4944341;28;21025;-77
2021/12/06 04:48:59;;;;;;;12.43;11.17;;;;;;;-1.21;100.00;97535.44;4984375;28;20229;-80
2021/12/06 04:51:28;;;;;;;13.73;12.27;;;;;;;-1.32;100.00;97536.19;4945978;28;21598;-79
2021/12/06 04:53:58;;;;;;;13.40;11.97;;;;;;;-1.15;100.00;97544.63;4963341;28;20224;-76
2021/12/06 04:56:29;;;;;;;15.33;11.33;;;;;;;-1.29;100.00;97532.53;4973088;28;20224;-78
2021/12/06 04:59:01;;;;;;;12.60;11.30;;;;;;;-1.14;100.00;97538.50;4964262;28;20224;-77
2021/12/06 05:01:32;;;;;;;13.13;11.77;;;;;;;-1.27;100.00;97539.31;4971125;28;20540;-79
2021/12/06 05:04:04;;;;;;;12.60;11.23;;;;;;;-1.33;100.00;97544.88;4944776;28;20494;-77
2021/12/06 05:06:34;;;;;;;13.40;12.00;;;;;;;-1.31;100.00;97553.44;4941506;28;20218;-79
2021/12/06 05:09:08;;;;;;;11.63;10.43;;;;;;;-1.31;100.00;97553.44;4976682;28;20324;-77
2021/12/06 05:11:37;;;;;;;13.93;11.67;;;;;;;-1.32;100.00;97560.41;4974973;28;20202;-77
2021/12/06 05:14:08;;;;;;;11.53;10.43;;;;;;;-1.34;100.00;97551.03;4974072;28;20445;-80
2021/12/06 05:16:37;;;;;;;13.57;10.43;;;;;;;-1.34;100.00;97567.47;4962501;28;20288;-79
2021/12/06 05:19:06;;;;;;;12.67;10.73;;;;;;;-1.39;100.00;97569.53;4947837;28;20244;-80
2021/12/06 05:21:35;;;;;;;11.90;10.23;;;;;;;-1.44;100.00;97566.41;4959431;28;20454;-80
2021/12/06 05:24:06;;;;;;;13.10;11.77;;;;;;;-1.45;100.00;97569.94;4969910;28;20621;-81
2021/12/06 05:26:37;;;;;;;14.33;11.60;;;;;;;-1.40;100.00;97578.25;4980063;28;20615;-79
2021/12/06 05:29:07;;;;;;;11.27;10.00;;;;;;;-1.32;100.00;97578.59;4964430;28;20690;-82
2021/12/06 05:31:40;;;;;;;15.50;11.10;;;;;;;-1.24;100.00;97585.91;4973506;28;20210;-81
2021/12/06 05:34:14;;;;;;;12.40;11.10;;;;;;;-1.31;100.00;97587.25;4943494;28;20977;-71
2021/12/06 05:36:43;;;;;;;13.70;10.83;;;;;;;-1.31;100.00;97587.25;4982750;28;20503;-72
2021/12/06 05:39:13;;;;;;;16.73;12.77;;;;;;;-1.38;100.00;97576.41;4947358;28;20476;-71
2021/12/06 05:41:42;;;;;;;14.20;11.50;;;;;;;-1.39;100.00;97592.09;4979463;28;20455;-72
2021/12/06 05:44:10;;;;;;;11.07;9.97;;;;;;;-1.34;100.00;97590.88;4973736;28;20597;-71
2021/12/06 05:46:38;;;;;;;12.43;11.13;;;;;;;-1.25;100.00;97596.41;4962575;28;20216;-73
2021/12/06 05:49:06;;;;;;;12.83;11.13;;;;;;;-1.15;100.00;97602.66;4946800;28;20476;-71
2021/12/06 05:51:34;;;;;;;12.63;10.60;;;;;;;-1.09;100.00;97598.84;4961322;28;20445;-72
2021/12/06 05:54:02;;;;;;;12.40;11.07;;;;;;;-1.22;100.00;97606.59;4962935;28;20426;-80
2021/12/06 05:56:33;;;;;;;14.40;12.20;;;;;;;-1.33;100.00;97612.47;4972345;28;20793;-81
2021/12/06 05:59:03;;;;;;;11.80;10.37;;;;;;;-1.27;100.00;97619.91;4947646;28;21361;-77
2021/12/06 06:01:33;;;;;;;11.73;10.40;;;;;;;-1.34;100.00;97618.59;4978403;28;20462;-79
2021/12/06 06:04:01;;;;;;;11.63;10.53;;;;;;;-1.34;100.00;97621.22;4933381;28;20918;-79
2021/12/06 06:06:31;;;;;;;10.93;9.83;;;;;;;-1.33;100.00;97620.28;4977950;28;20230;-80
2021/12/06 06:09:00;;;;;;;12.03;10.57;;;;;;;-1.29;100.00;97623.53;4964066;28;20600;-79
2021/12/06 06:11:28;;;;;;;11.47;10.37;;;;;;;-1.36;100.00;97621.31;4968917;28;21011;-76
2021/12/06 06:13:58;;;;;;;11.80;10.23;;;;;;;-1.39;100.00;97618.94;4979313;28;20446;-79
2021/12/06 06:16:31;;;;;;;11.33;10.23;;;;;;;-1.36;100.00;97625.69;4988292;28;21118;-79
2021/12/06 06:18:59;;;;;;;11.70;10.10;;;;;;;-1.18;100.00;97637.50;4958131;28;21540;-76
2021/12/06 06:21:27;;;;;;;15.33;11.13;;;;;;;-1.11;100.00;97630.16;4946298;28;20473;-76
2021/12/06 06:23:56;;;;;;;14.43;10.53;;;;;;;-1.24;100.00;97637.91;4976264;28;20789;-78
2021/12/06 06:26:24;;;;;;;32.13;26.97;;;;;;;-1.23;100.00;97636.13;4964507;28;20639;-79
2021/12/06 06:28:52;;;;;;;12.20;11.03;;;;;;;-1.26;100.00;97647.56;4974486;28;20499;-78
2021/12/06 06:31:21;;;;;;;10.90;9.80;;;;;;;-1.09;100.00;97654.31;4976713;28;21088;-78
2021/12/06 06:33:50;;;;;;;11.40;10.30;;;;;;;-1.18;100.00;97652.25;4961804;28;20523;-76
2021/12/06 06:36:18;;;;;;;10.87;9.87;;;;;;;-1.02;100.00;97660.75;4952842;28;20228;-79
2021/12/06 06:38:46;;;;;;;10.63;9.50;;;;;;;-0.91;100.00;97662.69;4975085;28;20226;-79
2021/12/06 06:41:15;;;;;;;11.03;9.93;;;;;;;-0.95;100.00;97660.38;4960500;28;20274;-78
2021/12/06 06:43:44;;;;;;;12.10;9.77;;;;;;;-1.09;100.00;97661.25;4973107;28;20492;-78
2021/12/06 06:46:13;;;;;;;10.03;9.03;;;;;;;-1.19;100.00;97667.06;4989731;28;20225;-78
2021/12/06 06:48:44;;;;;;;11.90;10.70;;;;;;;-1.07;100.00;97675.00;4965578;28;20229;-78
2021/12/06 06:51:13;;;;;;;12.33;10.07;;;;;;;-1.19;100.00;97672.25;4949232;28;21029;-79
2021/12/06 06:53:41;;;;;;;13.43;9.97;;;;;;;-1.20;100.00;97677.53;4964335;28;20312;-79
2021/12/06 06:56:10;;;;;;;11.47;10.27;;;;;;;-1.27;100.00;97674.50;4979742;28;20498;-78
2021/12/06 06:58:38;;;;;;;12.17;10.80;;;;;;;-1.34;100.00;97679.25;4960122;28;20238;-79
2021/12/06 07:01:06;;;;;;;12.37;11.07;;;;;;;-1.35;100.00;97684.53;4969981;28;20213;-78
2021/12/06 07:03:35;;;;;;;11.87;10.60;;;;;;;-1.32;100.00;97680.00;4978273;28;20484;-79
2021/12/06 07:06:06;;;;;;;14.13;11.13;;;;;;;-1.28;100.00;97685.84;4933688;28;21043;-79
2021/12/06 07:08:34;;;;;;;14.50;11.27;;;;;;;-1.40;100.00;97686.59;4974806;28;20598;-78
2021/12/06 07:11:04;;;;;;;13.13;11.53;;;;;;;-1.42;100.00;97689.31;4961896;28;20709;-78
2021/12/06 07:13:37;;;;;;;12.23;11.03;;;;;;;-1.38;100.00;97698.59;4962574;28;20210;-79
2021/12/06 07:16:06;;;;;;;12.37;10.80;;;;;;;-1.34;100.00;97696.59;4974620;28;20206;-76
2021/12/06 07:18:36;;;;;;;18.77;16.97;;;;;;;-1.33;100.00;97706.06;4959027;28;20481;-79
2021/12/06 07:21:05;;;;;;;26.67;24.27;;;;;;;-1.27;100.00;97700.50;4957118;28;20210;-78
2021/12/06 07:23:38;;;;;;;13.67;12.33;;;;;;;-1.13;100.00;97710.03;4961420;28;20462;-79
2021/12/06 07:26:07;;;;;;;12.53;11.23;;;;;;;-0.73;100.00;97719.66;4974290;28;20523;-79
2021/12/06 07:28:36;;;;;;;14.37;12.77;;;;;;;-0.47;100.00;97717.13;4964699;28;20240;-79
2021/12/06 07:31:06;;;;;;;14.17;12.33;;;;;;;-0.12;100.00;97729.56;4966953;28;20692;-76
2021/12/06 07:33:34;;;;;;;13.80;12.23;;;;;;;-0.47;100.00;97712.72;4976994;28;20210;-79
2021/12/06 07:36:03;;;;;;;14.27;11.80;;;;;;;-0.63;100.00;97722.50;4959053;28;20448;-78
2021/12/06 07:38:34;;;;;;;14.10;12.63;;;;;;;-0.77;100.00;97726.81;4946191;28;20249;-79
2021/12/06 07:41:05;;;;;;;15.00;11.87;;;;;;;-0.75;100.00;97729.31;4957850;28;21364;-78
2021/12/06 07:43:33;;;;;;;15.90;11.97;;;;;;;-0.89;100.00;97731.06;4961900;28;20448;-78
2021/12/06 07:46:02;;;;;;;16.33;11.80;;;;;;;-0.88;100.00;97734.47;4974411;28;20736;-78
2021/12/06 07:48:30;;;;;;;12.50;11.20;;;;;;;-0.96;100.00;97732.34;4961198;28;20241;-78
2021/12/06 07:51:00;;;;;;;14.70;12.90;;;;;;;-0.97;100.00;97729.88;4972560;28;20401;-78
2021/12/06 07:53:29;;;;;;;15.20;13.70;;;;;;;-0.97;100.00;97738.50;4931985;28;20473;-78
2021/12/06 07:55:57;;;;;;;15.37;12.60;;;;;;;-0.91;100.00;97742.47;4975064;28;20725;-79
2021/12/06 07:58:27;;;;;;;14.50;12.50;;;;;;;-0.85;100.00;97741.25;4974404;28;20500;-78
2021/12/06 08:00:56;;;;;;;15.20;13.57;;;;;;;-0.83;100.00;97755.00;4956771;28;20561;-78
2021/12/06 08:03:26;;;;;;;16.90;13.43;;;;;;;-0.82;100.00;97754.06;4974198;28;20813;-76
2021/12/06 08:05:55;;;;;;;25.30;18.67;;;;;;;-0.70;100.00;97757.66;4957408;28;20234;-78
2021/12/06 08:08:27;;;;;;;40.77;27.23;;;;;;;-0.71;100.00;97762.00;4945436;28;20476;-77
2021/12/06 08:10:57;;;;;;;16.43;12.97;;;;;;;-0.69;100.00;97762.75;4957631;28;21619;-76
2021/12/06 08:13:29;;;;;;;15.43;13.83;;;;;;;-0.69;100.00;97756.72;4981896;28;20445;-78
2021/12/06 08:16:01;;;;;;;17.13;14.43;;;;;;;-0.52;100.00;97755.63;4957796;28;20706;-80
2021/12/06 08:18:29;;;;;;;17.17;11.20;;;;;;;-0.63;100.00;97753.72;4958156;28;20567;-78
2021/12/06 08:20:59;;;;;;;15.93;12.17;;;;;;;-0.62;100.00;97758.00;4972187;28;20452;-79
2021/12/06 08:23:27;;;;;;;17.30;13.90;;;;;;;-0.48;100.00;97767.50;4959931;28;20674;-78
2021/12/06 08:25:56;;;;;;;24.63;21.47;;;;;;;-0.18;100.00;97763.84;4942928;28;21237;-79
2021/12/06 08:28:25;;;;;;;18.57;13.67;;;;;;;-0.30;100.00;97761.09;4981212;28;20229;-78
2021/12/06 08:30:54;;;;;;;18.73;14.33;;;;;;;-0.40;100.00;97770.44;4946870;28;20460;-78
2021/12/06 08:33:23;;;;;;;17.60;13.30;;;;;;;-0.35;100.00;97765.75;4975040;28;20232;-78
2021/12/06 08:35:53;;;;;;;20.57;16.67;;;;;;;-0.37;100.00;97772.84;4955040;28;20221;-77
2021/12/06 08:38:22;;;;;;;18.83;13.30;;;;;;;-0.36;100.00;97784.13;4977707;28;20526;-78
2021/12/06 08:40:52;;;;;;;23.60;16.20;;;;;;;-0.37;100.00;97783.25;4933337;28;20468;-78
2021/12/06 08:43:20;;;;;;;21.80;14.10;;;;;;;-0.36;100.00;97794.53;4977419;28;20224;-78
2021/12/06 08:45:52;;;;;;;109.63;39.37;;;;;;;-0.47;100.00;97795.22;4960167;28;20219;-78
2021/12/06 08:48:24;;;;;;;257.17;70.73;;;;;;;-0.51;100.00;97791.97;4959524;28;20469;-78
2021/12/06 08:50:53;;;;;;;27.50;19.63;;;;;;;-0.36;100.00;97797.13;4975301;28;20643;-75
2021/12/06 08:53:23;;;;;;;19.57;13.50;;;;;;;-0.40;100.00;97795.63;4964310;28;20221;-79
2021/12/06 08:55:52;;;;;;;40.67;26.53;;;;;;;-0.30;100.00;97796.72;4944020;28;20217;-78
2021/12/06 08:58:20;;;;;;;28.93;20.13;;;;;;;-0.23;100.00;97802.34;4974079;28;20480;-78
2021/12/06 09:00:48;;;;;;;78.27;46.00;;;;;;;-0.30;100.00;97792.34;4961262;28;20217;-78
2021/12/06 09:03:17;;;;;;;34.27;21.13;;;;;;;-0.21;100.00;97803.06;4969513;28;20229;-79
2021/12/06 09:05:52;;;;;;;21.57;16.73;;;;;;;-0.27;100.00;97804.34;4961973;28;20461;-78
2021/12/06 09:08:21;;;;;;;22.27;17.10;;;;;;;-0.22;100.00;97804.03;4980509;28;20248;-79
2021/12/06 09:10:51;;;;;;;21.93;14.93;;;;;;;-0.21;100.00;97816.94;4948759;28;20205;-78
2021/12/06 09:13:23;;;;;;;17.73;11.80;;;;;;;-0.16;100.00;97809.66;4977064;28;20287;-78
2021/12/06 09:15:53;;;;;;;18.77;14.20;;;;;;;-0.18;100.00;97815.94;4973559;28;20676;-77
2021/12/06 09:18:21;;;;;;;22.53;14.87;;;;;;;-0.19;100.00;97815.09;4964435;28;20728;-79
2021/12/06 09:20:53;;;;;;;22.63;16.57;;;;;;;-0.01;100.00;97807.81;4981383;28;20460;-78
2021/12/06 09:23:26;;;;;;;25.17;18.50;;;;;;;-0.03;100.00;97817.50;4964660;28;20206;-79
2021/12/06 09:25:56;;;;;;;18.90;14.60;;;;;;;-0.07;100.00;97818.66;4977565;28;20463;-77
2021/12/06 09:28:25;;;;;;;22.13;16.47;;;;;;;-0.02;100.00;97819.19;4949113;28;20276;-78
2021/12/06 09:30:53;;;;;;;17.77;15.37;;;;;;;0.16;100.00;97815.47;4965328;28;20220;-78
2021/12/06 09:33:23;;;;;;;20.33;14.53;;;;;;;0.24;100.00;97823.59;4965865;28;20272;-77
2021/12/06 09:35:58;;;;;;;18.90;12.43;;;;;;;0.19;100.00;97815.25;4962965;28;20455;-79
2021/12/06 09:38:28;;;;;;;16.10;12.17;;;;;;;0.04;100.00;97822.31;4980064;28;20240;-78
2021/12/06 09:40:58;;;;;;;19.20;13.07;;;;;;;0.06;100.00;97828.25;4958218;28;20848;-78
2021/12/06 09:43:26;;;;;;;17.83;12.13;;;;;;;0.02;100.00;97834.59;4948591;28;20689;-78
2021/12/06 09:45:56;;;;;;;21.50;14.03;;;;;;;-0.03;100.00;97834.91;4972330;28;20234;-78
2021/12/06 09:48:24;;;;;;;21.10;13.87;;;;;;;0.01;100.00;97836.41;4963230;28;20616;-77
2021/12/06 09:50:55;;;;;;;19.33;13.77;;;;;;;0.15;100.00;97827.63;4962524;28;20308;-78
2021/12/06 09:53:29;;;;;;;20.70;14.13;;;;;;;0.14;100.00;97828.56;4965792;28;20321;-79
2021/12/06 09:56:02;;;;;;;19.37;14.57;;;;;;;0.14;100.00;97824.22;4974678;28;20871;-78
2021/12/06 09:58:30;;;;;;;22.90;15.97;;;;;;;0.36;100.00;97829.75;4950836;28;20244;-79
2021/12/06 10:01:04;;;;;;;25.87;17.50;;;;;;;0.39;100.00;97834.75;4968134;28;20220;-78
2021/12/06 10:03:33;;;;;;;28.83;21.27;;;;;;;0.36;100.00;97833.19;4981059;28;20324;-79
2021/12/06 10:06:04;;;;;;;21.17;13.93;;;;;;;0.27;100.00;97825.97;4952054;28;20205;-78
2021/12/06 10:08:35;;;;;;;18.33;12.40;;;;;;;0.09;100.00;97821.09;4978735;28;20648;-77
2021/12/06 10:11:04;;;;;;;20.83;15.17;;;;;;;0.21;100.00;97829.00;4964707;28;20225;-79
2021/12/06 10:13:32;;;;;;;17.87;15.17;;;;;;;0.20;100.00;97833.41;4948630;28;20243;-79
2021/12/06 10:16:01;;;;;;;17.63;13.90;;;;;;;0.11;100.00;97831.38;4976424;28;20282;-79
2021/12/06 10:18:29;;;;;;;20.90;15.70;;;;;;;0.19;100.00;97823.91;4962786;28;20317;-77
2021/12/06 10:20:57;;;;;;;19.83;15.57;;;;;;;0.24;100.00;97827.03;4963332;28;20449;-79
2021/12/06 10:23:28;;;;;;;18.43;13.30;;;;;;;0.46;100.00;97820.38;4961776;28;20216;-79
2021/12/06 10:25:57;;;;;;;30.37;19.40;;;;;;;0.21;100.00;97815.97;4974012;28;20844;-77
2021/12/06 10:28:29;;;;;;;36.87;25.13;;;;;;;0.18;100.00;97813.56;4977861;28;20503;-78
2021/12/06 10:30:58;;;;;;;21.60;15.87;;;;;;;0.12;100.00;97820.03;4943441;28;20472;-78
2021/12/06 10:33:29;;;;;;;17.97;13.30;;;;;;;0.44;100.00;97817.03;4977423;28;20555;-77
2021/12/06 10:36:00;;;;;;;19.07;12.97;;;;;;;0.57;100.00;97823.09;4960705;28;20209;-78
2021/12/06 10:38:32;;;;;;;18.30;13.43;;;;;;;0.47;100.00;97821.22;4982083;28;20237;-78
2021/12/06 10:41:04;;;;;;;19.40;13.23;;;;;;;0.39;100.00;97814.75;4975464;28;20421;-78
2021/12/06 10:43:33;;;;;;;18.00;13.83;;;;;;;0.43;100.00;97815.34;4975861;28;20705;-77
2021/12/06 10:46:03;;;;;;;17.33;13.20;;;;;;;0.53;100.00;97811.16;4954301;28;20209;-77
2021/12/06 10:48:34;;;;;;;19.87;15.50;;;;;;;0.33;100.00;97814.31;4979527;28;20237;-78
2021/12/06 10:51:05;;;;;;;17.73;13.57;;;;;;;0.32;100.00;97812.66;4962640;28;20451;-77
2021/12/06 10:53:40;;;;;;;17.73;13.80;;;;;;;0.23;100.00;97804.53;4976809;28;20220;-77
2021/12/06 10:56:16;;;;;;;17.90;13.70;;;;;;;0.28;100.00;97810.25;4973860;28;20431;-77
2021/12/06 10:58:45;;;;;;;14.97;11.93;;;;;;;0.24;100.00;97805.34;4954548;28;20213;-78
2021/12/06 11:01:15;;;;;;;14.03;11.13;;;;;;;0.45;100.00;97804.84;4975699;28;20210;-78
2021/12/06 11:03:47;;;;;;;12.13;10.20;;;;;;;0.71;100.00;97810.88;4971512;28;20324;-78
2021/12/06 11:06:19;;;;;;;13.40;10.67;;;;;;;0.60;100.00;97801.16;4963340;28;20202;-78
2021/12/06 11:08:50;;;;;;;16.13;11.30;;;;;;;0.56;100.00;97802.31;4974147;28;20268;-78
2021/12/06 11:11:24;;;;;;;13.10;10.43;;;;;;;0.20;100.00;97798.66;4974363;28;20328;-77
2021/12/06 11:13:54;;;;;;;11.47;9.97;;;;;;;0.50;100.00;97798.34;4944320;28;21237;-78
2021/12/06 11:16:24;;;;;;;12.17;9.70;;;;;;;0.53;100.00;97794.72;4977649;28;20216;-78
2021/12/06 11:18:55;;;;;;;12.17;10.87;;;;;;;0.40;100.00;97787.75;4973126;28;20757;-77
2021/12/06 11:21:30;;;;;;;11.13;9.90;;;;;;;0.69;100.00;97790.09;4975441;28;20223;-77
2021/12/06 11:24:15;;;;;;;14.37;10.37;;;;;;;0.53;100.00;97802.53;4964825;28;20584;-79
2021/12/06 11:26:48;;;;;;;12.43;11.13;;;;;;;0.80;100.00;97799.78;4972097;28;20214;-78
2021/12/06 11:29:19;;;;;;;12.77;10.17;;;;;;;0.69;100.00;97804.91;4946499;28;20613;-78
2021/12/06 11:32:00;;;;;;;13.27;11.80;;;;;;;0.56;100.00;97797.91;4973541;28;20215;-78
2021/12/06 11:34:33;;;;;;;12.57;10.33;;;;;;;0.65;100.00;97803.47;4981417;28;20213;-78